Aérodrome :
LOGIN :

S'inscrire | Disclaimer

   EN    FR    IT 

 










Légende :    VFR   VFR Marginal   IFR   IFR Intensif   IFR Très Intensif
Visi : 
Plafond : 
>= 8 km
>= 3000ft
5 à 8 km
1000 à 3000 ft
1500m à 5 km
500 à 1000 ft
800 à 1500m
200 à 500 ft
< 800m
< 200 ft
Symboles :   Orages  Brouillard  Fortes neiges  Fortes précipitations  Vent > 20 kt
SIGMETs :   Divers  Orages  Givrage  Turbulence  Onde Orograph.  Cendres Volcan.







- Altitude de l'aérodrome : 622 ft
- Code IATA : BRS
- Voir les cartes d'approche


EGGD - Bristol Int.

DERNIER METAR :
  • 181920Z AUTO 19005KT 160V220 9999 -RA SCT028 BKN038 BKN049 06/06 Q1000

METARs EXPIRÉS :
  • 181850Z AUTO 17005KT 9999 NCD 06/06 Q1000
  • 181820Z AUTO 18004KT 9999 -RA BKN038 OVC044 06/06 Q1000
  • 181750Z AUTO 20004KT 9000 -RA OVC034/// //////TCU 07/07 Q1000
  • 181720Z AUTO 24005KT 5000 -RA OVC027/// //////TCU 07/07 Q1000
  • 181650Z AUTO 26007KT 6000 -RA FEW025/// OVC032/// //////CB 07/07 Q1000

TAF TAF EGGD
Valide du 18 à 18h jusqu'au 19 à 18h UTC


181701Z 1818/1918 26010KT 9999 SCT025
BECMG 1818/1820 19010KT
TEMPO 1818/1819 7000 RA BKN008
PROB30
TEMPO 1818/1819 0300 FG VV///
TEMPO 1822/1908 7000 SHRA BKN010
PROB30
TEMPO 1822/1908 21015G25KT 3000 +SHRA BKN006 BKN012CB
TEMPO 1915/1918 20015G25KT 7000 SHRA BKN008
ATIS : +44 1275 473 666
Pas de NOTAMs connus pour ce terrain.
2 SIGMETs publiés pour la FIR London (EGTT) :
 
Onde orographique forte
EGTT SIGMET 09 VALID 181900/182300 EGRR
EGTT LONDON FIR SEV MTW FCST WI N5220 W00530 - N5500 W00530 - N5500 W00015 - N5024 W00255 - N4959 W00548 - N5220 W00530 FL030/250 STNR WKN=
Onde orographique forte
EGTT SIGMET 08 VALID 181500/181900 EGRR
EGTT LONDON FIR SEV MTW FCST WI N5220 W00530 - N5500 W00530 - N5500 W00015 - N5024 W00255 - N4959 W00548 - N5220 W00530 FL030/250 STNR WKN=



MET'MAP, la Météo Aéronautique d'un coup d'oeil ! - Copyright ORBIFLY Décembre 2007 - Disclaimer

ORBIFLY MET'MAP TEAM :

Programmation & Développement : Alexandra Zaïnal
Conception & Développement : Baudouin d'Aumeries
Co-Programmation & Développement : Marc-Olivier Méhu
Soutien technique & logistique : Manuel Goepfert

Contact : metmap@orbifly.com




SOURCES & CREDITS :

   NOAA